sensor_id;sensor_type;location;lat;lon;timestamp;P1;durP1;ratioP1;P2;durP2;ratioP2
25936;SDS011;13733;51.178;4.450;2023-09-30T00:00:26;13.57;;;7.93;;
25936;SDS011;13733;51.178;4.450;2023-09-30T00:02:52;11.88;;;7.65;;
25936;SDS011;13733;51.178;4.450;2023-09-30T00:05:18;15.77;;;8.65;;
25936;SDS011;13733;51.178;4.450;2023-09-30T00:07:47;16.33;;;7.97;;
25936;SDS011;13733;51.178;4.450;2023-09-30T00:10:13;11.77;;;7.32;;
25936;SDS011;13733;51.178;4.450;2023-09-30T00:12:40;16.33;;;9.07;;
25936;SDS011;13733;51.178;4.450;2023-09-30T00:15:06;15.02;;;7.95;;
25936;SDS011;13733;51.178;4.450;2023-09-30T00:17:32;14.30;;;8.10;;
25936;SDS011;13733;51.178;4.450;2023-09-30T00:19:58;15.05;;;8.18;;
25936;SDS011;13733;51.178;4.450;2023-09-30T00:22:24;12.55;;;7.90;;
25936;SDS011;13733;51.178;4.450;2023-09-30T00:24:51;14.93;;;8.15;;
25936;SDS011;13733;51.178;4.450;2023-09-30T00:27:17;15.73;;;8.38;;
25936;SDS011;13733;51.178;4.450;2023-09-30T00:29:43;15.02;;;7.57;;
25936;SDS011;13733;51.178;4.450;2023-09-30T00:32:09;16.58;;;8.57;;
25936;SDS011;13733;51.178;4.450;2023-09-30T00:34:36;15.52;;;7.93;;
25936;SDS011;13733;51.178;4.450;2023-09-30T00:37:02;14.35;;;7.90;;
25936;SDS011;13733;51.178;4.450;2023-09-30T00:39:28;13.73;;;8.43;;
25936;SDS011;13733;51.178;4.450;2023-09-30T00:41:57;12.18;;;7.65;;
25936;SDS011;13733;51.178;4.450;2023-09-30T00:44:28;14.00;;;8.35;;
25936;SDS011;13733;51.178;4.450;2023-09-30T00:46:54;16.65;;;8.48;;
25936;SDS011;13733;51.178;4.450;2023-09-30T00:49:21;11.98;;;8.00;;
25936;SDS011;13733;51.178;4.450;2023-09-30T00:51:48;14.45;;;7.72;;
25936;SDS011;13733;51.178;4.450;2023-09-30T00:54:14;13.93;;;8.25;;
25936;SDS011;13733;51.178;4.450;2023-09-30T00:56:45;14.55;;;8.57;;
25936;SDS011;13733;51.178;4.450;2023-09-30T00:59:15;13.35;;;8.95;;
25936;SDS011;13733;51.178;4.450;2023-09-30T01:01:44;13.70;;;7.90;;
25936;SDS011;13733;51.178;4.450;2023-09-30T01:04:11;11.70;;;7.70;;
25936;SDS011;13733;51.178;4.450;2023-09-30T01:06:37;17.58;;;7.57;;
25936;SDS011;13733;51.178;4.450;2023-09-30T01:09:04;10.57;;;7.53;;
25936;SDS011;13733;51.178;4.450;2023-09-30T01:11:30;13.57;;;7.93;;
25936;SDS011;13733;51.178;4.450;2023-09-30T01:13:56;12.65;;;7.75;;
25936;SDS011;13733;51.178;4.450;2023-09-30T01:16:23;14.88;;;7.60;;
25936;SDS011;13733;51.178;4.450;2023-09-30T01:18:49;15.65;;;8.10;;
25936;SDS011;13733;51.178;4.450;2023-09-30T01:21:15;14.85;;;7.97;;
25936;SDS011;13733;51.178;4.450;2023-09-30T01:23:41;12.88;;;7.97;;
25936;SDS011;13733;51.178;4.450;2023-09-30T01:26:09;13.32;;;7.65;;
25936;SDS011;13733;51.178;4.450;2023-09-30T01:28:40;11.93;;;7.65;;
25936;SDS011;13733;51.178;4.450;2023-09-30T01:31:06;14.45;;;7.40;;
25936;SDS011;13733;51.178;4.450;2023-09-30T01:33:34;15.82;;;7.88;;
25936;SDS011;13733;51.178;4.450;2023-09-30T01:36:02;12.35;;;7.93;;
25936;SDS011;13733;51.178;4.450;2023-09-30T01:38:30;13.68;;;7.88;;
25936;SDS011;13733;51.178;4.450;2023-09-30T01:40:56;17.05;;;8.45;;
25936;SDS011;13733;51.178;4.450;2023-09-30T01:43:22;15.27;;;8.18;;
25936;SDS011;13733;51.178;4.450;2023-09-30T01:45:48;13.13;;;7.97;;
25936;SDS011;13733;51.178;4.450;2023-09-30T01:48:14;11.95;;;7.88;;
25936;SDS011;13733;51.178;4.450;2023-09-30T01:50:40;14.82;;;7.50;;
25936;SDS011;13733;51.178;4.450;2023-09-30T01:53:09;14.85;;;7.75;;
25936;SDS011;13733;51.178;4.450;2023-09-30T01:55:35;14.30;;;8.25;;
25936;SDS011;13733;51.178;4.450;2023-09-30T01:58:03;11.73;;;7.53;;
25936;SDS011;13733;51.178;4.450;2023-09-30T02:00:29;13.10;;;7.75;;
25936;SDS011;13733;51.178;4.450;2023-09-30T02:02:55;14.80;;;7.93;;
25936;SDS011;13733;51.178;4.450;2023-09-30T02:05:22;14.00;;;8.20;;
25936;SDS011;13733;51.178;4.450;2023-09-30T02:07:49;13.13;;;7.57;;
25936;SDS011;13733;51.178;4.450;2023-09-30T02:10:16;14.30;;;8.60;;
25936;SDS011;13733;51.178;4.450;2023-09-30T02:12:44;14.05;;;7.97;;
25936;SDS011;13733;51.178;4.450;2023-09-30T02:15:11;15.00;;;8.45;;
25936;SDS011;13733;51.178;4.450;2023-09-30T02:17:37;14.27;;;7.93;;
25936;SDS011;13733;51.178;4.450;2023-09-30T02:20:04;13.45;;;8.27;;
25936;SDS011;13733;51.178;4.450;2023-09-30T02:22:38;13.05;;;8.20;;
25936;SDS011;13733;51.178;4.450;2023-09-30T02:25:05;13.93;;;8.40;;
25936;SDS011;13733;51.178;4.450;2023-09-30T02:27:33;14.93;;;8.65;;
25936;SDS011;13733;51.178;4.450;2023-09-30T02:29:59;13.55;;;8.32;;
25936;SDS011;13733;51.178;4.450;2023-09-30T02:32:26;13.05;;;8.18;;
25936;SDS011;13733;51.178;4.450;2023-09-30T02:34:52;13.48;;;7.72;;
25936;SDS011;13733;51.178;4.450;2023-09-30T02:37:19;16.60;;;8.50;;
25936;SDS011;13733;51.178;4.450;2023-09-30T02:39:44;12.77;;;8.35;;
25936;SDS011;13733;51.178;4.450;2023-09-30T02:42:10;23.27;;;9.63;;
25936;SDS011;13733;51.178;4.450;2023-09-30T02:44:36;11.23;;;7.25;;
25936;SDS011;13733;51.178;4.450;2023-09-30T02:47:02;13.45;;;7.78;;
25936;SDS011;13733;51.178;4.450;2023-09-30T02:49:28;13.57;;;7.35;;
25936;SDS011;13733;51.178;4.450;2023-09-30T02:51:57;16.75;;;8.85;;
25936;SDS011;13733;51.178;4.450;2023-09-30T02:54:23;13.80;;;8.00;;
25936;SDS011;13733;51.178;4.450;2023-09-30T02:56:49;13.55;;;7.85;;
25936;SDS011;13733;51.178;4.450;2023-09-30T02:59:15;16.75;;;8.32;;
25936;SDS011;13733;51.178;4.450;2023-09-30T03:01:41;15.98;;;7.50;;
25936;SDS011;13733;51.178;4.450;2023-09-30T03:04:09;14.15;;;7.50;;
25936;SDS011;13733;51.178;4.450;2023-09-30T03:06:38;13.88;;;7.78;;
25936;SDS011;13733;51.178;4.450;2023-09-30T03:09:04;14.23;;;7.82;;
25936;SDS011;13733;51.178;4.450;2023-09-30T03:11:30;17.00;;;8.05;;
25936;SDS011;13733;51.178;4.450;2023-09-30T03:13:56;13.82;;;8.20;;
25936;SDS011;13733;51.178;4.450;2023-09-30T03:16:23;12.93;;;7.50;;
25936;SDS011;13733;51.178;4.450;2023-09-30T03:18:50;16.90;;;7.68;;
25936;SDS011;13733;51.178;4.450;2023-09-30T03:21:16;19.48;;;8.73;;
25936;SDS011;13733;51.178;4.450;2023-09-30T03:23:42;16.30;;;8.25;;
25936;SDS011;13733;51.178;4.450;2023-09-30T03:26:09;14.40;;;7.80;;
25936;SDS011;13733;51.178;4.450;2023-09-30T03:28:37;16.88;;;7.43;;
25936;SDS011;13733;51.178;4.450;2023-09-30T03:31:04;16.08;;;7.65;;
25936;SDS011;13733;51.178;4.450;2023-09-30T03:33:31;22.85;;;9.45;;
25936;SDS011;13733;51.178;4.450;2023-09-30T03:35:57;19.55;;;8.20;;
25936;SDS011;13733;51.178;4.450;2023-09-30T03:38:24;18.70;;;8.32;;
25936;SDS011;13733;51.178;4.450;2023-09-30T03:40:50;16.95;;;9.00;;
25936;SDS011;13733;51.178;4.450;2023-09-30T03:43:19;17.00;;;9.43;;
25936;SDS011;13733;51.178;4.450;2023-09-30T03:45:46;17.48;;;8.75;;
25936;SDS011;13733;51.178;4.450;2023-09-30T03:48:12;21.90;;;9.35;;
25936;SDS011;13733;51.178;4.450;2023-09-30T03:50:38;26.48;;;10.85;;
25936;SDS011;13733;51.178;4.450;2023-09-30T03:53:04;16.95;;;9.57;;
25936;SDS011;13733;51.178;4.450;2023-09-30T03:55:32;26.80;;;10.95;;
25936;SDS011;13733;51.178;4.450;2023-09-30T03:57:59;23.45;;;10.63;;
25936;SDS011;13733;51.178;4.450;2023-09-30T04:00:25;23.23;;;10.80;;
25936;SDS011;13733;51.178;4.450;2023-09-30T04:02:53;16.17;;;9.73;;
25936;SDS011;13733;51.178;4.450;2023-09-30T04:05:23;19.45;;;10.10;;
25936;SDS011;13733;51.178;4.450;2023-09-30T04:07:55;19.08;;;10.18;;
25936;SDS011;13733;51.178;4.450;2023-09-30T04:10:21;20.65;;;10.18;;
25936;SDS011;13733;51.178;4.450;2023-09-30T04:12:50;25.75;;;10.23;;
25936;SDS011;13733;51.178;4.450;2023-09-30T04:15:17;28.65;;;11.55;;
25936;SDS011;13733;51.178;4.450;2023-09-30T04:17:43;15.25;;;9.65;;
25936;SDS011;13733;51.178;4.450;2023-09-30T04:20:09;20.65;;;10.93;;
25936;SDS011;13733;51.178;4.450;2023-09-30T04:22:41;21.10;;;10.90;;
25936;SDS011;13733;51.178;4.450;2023-09-30T04:25:14;18.73;;;10.15;;
25936;SDS011;13733;51.178;4.450;2023-09-30T04:27:44;21.75;;;11.40;;
25936;SDS011;13733;51.178;4.450;2023-09-30T04:30:13;31.75;;;12.13;;
25936;SDS011;13733;51.178;4.450;2023-09-30T04:32:40;21.88;;;11.90;;
25936;SDS011;13733;51.178;4.450;2023-09-30T04:35:06;24.50;;;11.13;;
25936;SDS011;13733;51.178;4.450;2023-09-30T04:37:36;25.58;;;11.18;;
25936;SDS011;13733;51.178;4.450;2023-09-30T04:40:06;20.65;;;10.52;;
25936;SDS011;13733;51.178;4.450;2023-09-30T04:42:45;23.05;;;11.38;;
25936;SDS011;13733;51.178;4.450;2023-09-30T04:45:14;19.05;;;11.00;;
25936;SDS011;13733;51.178;4.450;2023-09-30T04:47:46;29.38;;;13.32;;
25936;SDS011;13733;51.178;4.450;2023-09-30T04:50:14;25.20;;;12.85;;
25936;SDS011;13733;51.178;4.450;2023-09-30T04:52:40;26.70;;;12.63;;
25936;SDS011;13733;51.178;4.450;2023-09-30T04:55:06;23.50;;;11.85;;
25936;SDS011;13733;51.178;4.450;2023-09-30T04:57:33;22.50;;;12.25;;
25936;SDS011;13733;51.178;4.450;2023-09-30T05:00:00;21.17;;;12.23;;
25936;SDS011;13733;51.178;4.450;2023-09-30T05:02:26;21.10;;;11.55;;
25936;SDS011;13733;51.178;4.450;2023-09-30T05:04:53;23.17;;;12.00;;
25936;SDS011;13733;51.178;4.450;2023-09-30T05:07:20;20.38;;;11.35;;
25936;SDS011;13733;51.178;4.450;2023-09-30T05:09:47;30.35;;;13.27;;
25936;SDS011;13733;51.178;4.450;2023-09-30T05:12:13;31.67;;;13.85;;
25936;SDS011;13733;51.178;4.450;2023-09-30T05:14:39;36.40;;;14.93;;
25936;SDS011;13733;51.178;4.450;2023-09-30T05:17:05;25.67;;;13.20;;
25936;SDS011;13733;51.178;4.450;2023-09-30T05:19:31;23.98;;;14.60;;
25936;SDS011;13733;51.178;4.450;2023-09-30T05:21:57;26.05;;;13.70;;
25936;SDS011;13733;51.178;4.450;2023-09-30T05:24:23;28.52;;;13.27;;
25936;SDS011;13733;51.178;4.450;2023-09-30T05:26:50;20.33;;;11.95;;
25936;SDS011;13733;51.178;4.450;2023-09-30T05:29:16;29.80;;;12.38;;
25936;SDS011;13733;51.178;4.450;2023-09-30T05:31:42;34.75;;;14.02;;
25936;SDS011;13733;51.178;4.450;2023-09-30T05:34:08;27.05;;;13.70;;
25936;SDS011;13733;51.178;4.450;2023-09-30T05:36:34;26.58;;;13.82;;
25936;SDS011;13733;51.178;4.450;2023-09-30T05:39:00;24.55;;;13.70;;
25936;SDS011;13733;51.178;4.450;2023-09-30T05:41:27;41.97;;;14.93;;
25936;SDS011;13733;51.178;4.450;2023-09-30T05:43:54;33.53;;;15.32;;
25936;SDS011;13733;51.178;4.450;2023-09-30T05:46:20;29.95;;;14.73;;
25936;SDS011;13733;51.178;4.450;2023-09-30T05:48:46;34.55;;;15.30;;
25936;SDS011;13733;51.178;4.450;2023-09-30T05:51:12;29.30;;;14.27;;
25936;SDS011;13733;51.178;4.450;2023-09-30T05:53:41;29.25;;;13.82;;
25936;SDS011;13733;51.178;4.450;2023-09-30T05:56:07;34.85;;;13.95;;
25936;SDS011;13733;51.178;4.450;2023-09-30T05:58:36;27.10;;;13.68;;
25936;SDS011;13733;51.178;4.450;2023-09-30T06:01:07;27.15;;;13.60;;
25936;SDS011;13733;51.178;4.450;2023-09-30T06:03:36;25.17;;;13.60;;
25936;SDS011;13733;51.178;4.450;2023-09-30T06:06:14;28.60;;;14.18;;
25936;SDS011;13733;51.178;4.450;2023-09-30T06:08:42;28.48;;;14.02;;
25936;SDS011;13733;51.178;4.450;2023-09-30T06:11:17;23.30;;;13.80;;
25936;SDS011;13733;51.178;4.450;2023-09-30T06:13:44;30.38;;;14.70;;
25936;SDS011;13733;51.178;4.450;2023-09-30T06:16:12;26.65;;;14.15;;
25936;SDS011;13733;51.178;4.450;2023-09-30T06:18:38;29.30;;;12.95;;
25936;SDS011;13733;51.178;4.450;2023-09-30T06:21:04;24.35;;;13.38;;
25936;SDS011;13733;51.178;4.450;2023-09-30T06:23:30;29.75;;;14.38;;
25936;SDS011;13733;51.178;4.450;2023-09-30T06:25:56;33.35;;;13.93;;
25936;SDS011;13733;51.178;4.450;2023-09-30T06:28:25;30.88;;;15.00;;
25936;SDS011;13733;51.178;4.450;2023-09-30T06:30:54;35.42;;;15.70;;
25936;SDS011;13733;51.178;4.450;2023-09-30T06:33:21;28.52;;;14.77;;
25936;SDS011;13733;51.178;4.450;2023-09-30T06:35:48;29.15;;;14.52;;
25936;SDS011;13733;51.178;4.450;2023-09-30T06:38:20;33.08;;;14.73;;
25936;SDS011;13733;51.178;4.450;2023-09-30T06:40:46;38.10;;;15.20;;
25936;SDS011;13733;51.178;4.450;2023-09-30T06:43:15;32.90;;;14.68;;
25936;SDS011;13733;51.178;4.450;2023-09-30T06:45:42;26.17;;;14.48;;
25936;SDS011;13733;51.178;4.450;2023-09-30T06:48:08;31.48;;;14.57;;
25936;SDS011;13733;51.178;4.450;2023-09-30T06:50:44;37.58;;;16.63;;
25936;SDS011;13733;51.178;4.450;2023-09-30T06:53:17;33.63;;;15.63;;
25936;SDS011;13733;51.178;4.450;2023-09-30T06:55:46;37.80;;;13.77;;
25936;SDS011;13733;51.178;4.450;2023-09-30T06:58:12;37.60;;;14.18;;
25936;SDS011;13733;51.178;4.450;2023-09-30T07:00:42;28.15;;;13.70;;
25936;SDS011;13733;51.178;4.450;2023-09-30T07:03:08;29.38;;;14.23;;
25936;SDS011;13733;51.178;4.450;2023-09-30T07:05:35;29.08;;;13.57;;
25936;SDS011;13733;51.178;4.450;2023-09-30T07:08:01;29.45;;;13.63;;
25936;SDS011;13733;51.178;4.450;2023-09-30T07:10:28;33.03;;;14.35;;
25936;SDS011;13733;51.178;4.450;2023-09-30T07:12:54;28.90;;;12.95;;
25936;SDS011;13733;51.178;4.450;2023-09-30T07:15:21;30.08;;;13.07;;
25936;SDS011;13733;51.178;4.450;2023-09-30T07:17:46;29.35;;;13.27;;
25936;SDS011;13733;51.178;4.450;2023-09-30T07:20:13;32.75;;;12.82;;
25936;SDS011;13733;51.178;4.450;2023-09-30T07:22:39;24.27;;;12.55;;
25936;SDS011;13733;51.178;4.450;2023-09-30T07:25:05;24.77;;;12.35;;
25936;SDS011;13733;51.178;4.450;2023-09-30T07:27:31;31.73;;;12.38;;
25936;SDS011;13733;51.178;4.450;2023-09-30T07:29:57;28.90;;;13.05;;
25936;SDS011;13733;51.178;4.450;2023-09-30T07:32:24;31.48;;;12.85;;
25936;SDS011;13733;51.178;4.450;2023-09-30T07:34:50;30.98;;;13.00;;
25936;SDS011;13733;51.178;4.450;2023-09-30T07:37:17;26.95;;;12.30;;
25936;SDS011;13733;51.178;4.450;2023-09-30T07:39:44;29.25;;;12.63;;
25936;SDS011;13733;51.178;4.450;2023-09-30T07:42:10;32.05;;;12.27;;
25936;SDS011;13733;51.178;4.450;2023-09-30T07:44:36;33.20;;;13.15;;
25936;SDS011;13733;51.178;4.450;2023-09-30T07:47:05;30.80;;;12.65;;
25936;SDS011;13733;51.178;4.450;2023-09-30T07:49:34;35.13;;;12.40;;
25936;SDS011;13733;51.178;4.450;2023-09-30T07:52:00;38.17;;;13.30;;
25936;SDS011;13733;51.178;4.450;2023-09-30T07:54:26;30.98;;;12.15;;
25936;SDS011;13733;51.178;4.450;2023-09-30T07:56:52;28.85;;;12.23;;
25936;SDS011;13733;51.178;4.450;2023-09-30T07:59:18;30.30;;;12.68;;
25936;SDS011;13733;51.178;4.450;2023-09-30T08:01:44;40.15;;;12.95;;
25936;SDS011;13733;51.178;4.450;2023-09-30T08:04:11;34.65;;;11.98;;
25936;SDS011;13733;51.178;4.450;2023-09-30T08:06:37;42.35;;;12.60;;
25936;SDS011;13733;51.178;4.450;2023-09-30T08:09:03;30.10;;;11.60;;
25936;SDS011;13733;51.178;4.450;2023-09-30T08:11:35;27.58;;;11.27;;
25936;SDS011;13733;51.178;4.450;2023-09-30T08:14:03;41.90;;;12.57;;
25936;SDS011;13733;51.178;4.450;2023-09-30T08:16:39;42.40;;;11.52;;
25936;SDS011;13733;51.178;4.450;2023-09-30T08:19:05;37.00;;;11.13;;
25936;SDS011;13733;51.178;4.450;2023-09-30T08:21:32;39.55;;;12.07;;
25936;SDS011;13733;51.178;4.450;2023-09-30T08:23:59;32.75;;;10.82;;
25936;SDS011;13733;51.178;4.450;2023-09-30T08:26:25;40.05;;;11.63;;
25936;SDS011;13733;51.178;4.450;2023-09-30T08:28:51;35.53;;;11.50;;
25936;SDS011;13733;51.178;4.450;2023-09-30T08:31:17;31.88;;;11.13;;
25936;SDS011;13733;51.178;4.450;2023-09-30T08:33:42;38.53;;;12.05;;
25936;SDS011;13733;51.178;4.450;2023-09-30T08:36:10;37.10;;;12.15;;
25936;SDS011;13733;51.178;4.450;2023-09-30T08:38:37;41.58;;;12.95;;
25936;SDS011;13733;51.178;4.450;2023-09-30T08:41:04;34.17;;;11.77;;
25936;SDS011;13733;51.178;4.450;2023-09-30T08:43:30;42.83;;;12.85;;
25936;SDS011;13733;51.178;4.450;2023-09-30T08:46:00;41.42;;;11.38;;
25936;SDS011;13733;51.178;4.450;2023-09-30T08:48:29;36.10;;;10.30;;
25936;SDS011;13733;51.178;4.450;2023-09-30T08:50:58;35.22;;;10.52;;
25936;SDS011;13733;51.178;4.450;2023-09-30T08:53:25;34.50;;;10.63;;
25936;SDS011;13733;51.178;4.450;2023-09-30T08:55:55;36.28;;;11.75;;
25936;SDS011;13733;51.178;4.450;2023-09-30T08:58:28;34.55;;;10.40;;
25936;SDS011;13733;51.178;4.450;2023-09-30T09:00:54;35.25;;;10.30;;
25936;SDS011;13733;51.178;4.450;2023-09-30T09:03:21;32.95;;;10.25;;
25936;SDS011;13733;51.178;4.450;2023-09-30T09:05:53;31.75;;;10.13;;
25936;SDS011;13733;51.178;4.450;2023-09-30T09:08:23;31.35;;;9.00;;
25936;SDS011;13733;51.178;4.450;2023-09-30T09:10:54;32.75;;;9.55;;
25936;SDS011;13733;51.178;4.450;2023-09-30T09:13:27;34.83;;;9.23;;
25936;SDS011;13733;51.178;4.450;2023-09-30T09:16:06;33.22;;;8.98;;
25936;SDS011;13733;51.178;4.450;2023-09-30T09:18:35;28.90;;;8.55;;
25936;SDS011;13733;51.178;4.450;2023-09-30T09:23:39;27.88;;;8.30;;
25936;SDS011;13733;51.178;4.450;2023-09-30T09:26:08;32.08;;;9.63;;
25936;SDS011;13733;51.178;4.450;2023-09-30T09:28:35;31.20;;;8.50;;
25936;SDS011;13733;51.178;4.450;2023-09-30T09:31:18;26.05;;;7.90;;
25936;SDS011;13733;51.178;4.450;2023-09-30T09:33:46;20.73;;;6.53;;
25936;SDS011;13733;51.178;4.450;2023-09-30T09:36:12;24.80;;;6.93;;
25936;SDS011;13733;51.178;4.450;2023-09-30T09:39:11;28.38;;;6.95;;
25936;SDS011;13733;51.178;4.450;2023-09-30T09:41:31;25.80;;;7.90;;
25936;SDS011;13733;51.178;4.450;2023-09-30T09:43:57;34.55;;;7.22;;
25936;SDS011;13733;51.178;4.450;2023-09-30T09:46:24;25.80;;;7.15;;
25936;SDS011;13733;51.178;4.450;2023-09-30T09:48:52;27.60;;;6.47;;
25936;SDS011;13733;51.178;4.450;2023-09-30T09:51:20;24.98;;;7.22;;
25936;SDS011;13733;51.178;4.450;2023-09-30T09:53:46;21.48;;;6.68;;
25936;SDS011;13733;51.178;4.450;2023-09-30T09:56:15;23.75;;;6.50;;
25936;SDS011;13733;51.178;4.450;2023-09-30T09:58:42;25.05;;;6.35;;
25936;SDS011;13733;51.178;4.450;2023-09-30T10:01:09;18.45;;;5.30;;
25936;SDS011;13733;51.178;4.450;2023-09-30T10:03:36;22.95;;;5.90;;
25936;SDS011;13733;51.178;4.450;2023-09-30T10:06:03;27.98;;;6.68;;
25936;SDS011;13733;51.178;4.450;2023-09-30T10:08:31;23.85;;;6.30;;
25936;SDS011;13733;51.178;4.450;2023-09-30T10:11:02;20.42;;;5.47;;
25936;SDS011;13733;51.178;4.450;2023-09-30T10:19:08;22.55;;;5.30;;
25936;SDS011;13733;51.178;4.450;2023-09-30T10:21:34;23.38;;;6.53;;
25936;SDS011;13733;51.178;4.450;2023-09-30T10:29:40;21.00;;;5.53;;
25936;SDS011;13733;51.178;4.450;2023-09-30T10:32:10;21.38;;;5.03;;
25936;SDS011;13733;51.178;4.450;2023-09-30T10:34:35;26.98;;;6.07;;
25936;SDS011;13733;51.178;4.450;2023-09-30T10:39:59;22.38;;;6.00;;
25936;SDS011;13733;51.178;4.450;2023-09-30T10:45:53;28.75;;;5.43;;
25936;SDS011;13733;51.178;4.450;2023-09-30T10:50:58;16.20;;;4.72;;
25936;SDS011;13733;51.178;4.450;2023-09-30T10:53:28;20.40;;;5.07;;
25936;SDS011;13733;51.178;4.450;2023-09-30T10:55:54;19.30;;;5.20;;
25936;SDS011;13733;51.178;4.450;2023-09-30T10:58:38;21.27;;;5.65;;
25936;SDS011;13733;51.178;4.450;2023-09-30T11:01:07;20.17;;;6.25;;
25936;SDS011;13733;51.178;4.450;2023-09-30T11:03:33;18.48;;;6.00;;
25936;SDS011;13733;51.178;4.450;2023-09-30T11:06:00;15.60;;;5.20;;
25936;SDS011;13733;51.178;4.450;2023-09-30T11:08:27;20.23;;;5.15;;
25936;SDS011;13733;51.178;4.450;2023-09-30T11:10:55;18.15;;;5.80;;
25936;SDS011;13733;51.178;4.450;2023-09-30T11:13:21;16.95;;;4.97;;
25936;SDS011;13733;51.178;4.450;2023-09-30T11:15:48;22.38;;;6.28;;
25936;SDS011;13733;51.178;4.450;2023-09-30T11:18:26;21.00;;;5.50;;
25936;SDS011;13733;51.178;4.450;2023-09-30T11:20:54;20.10;;;5.38;;
25936;SDS011;13733;51.178;4.450;2023-09-30T11:23:38;20.92;;;5.40;;
25936;SDS011;13733;51.178;4.450;2023-09-30T11:26:06;12.65;;;4.68;;
25936;SDS011;13733;51.178;4.450;2023-09-30T11:28:39;18.55;;;4.70;;
25936;SDS011;13733;51.178;4.450;2023-09-30T11:31:08;16.73;;;5.30;;
25936;SDS011;13733;51.178;4.450;2023-09-30T11:33:51;20.55;;;4.80;;
25936;SDS011;13733;51.178;4.450;2023-09-30T11:36:19;16.98;;;4.93;;
25936;SDS011;13733;51.178;4.450;2023-09-30T11:38:47;17.45;;;5.38;;
25936;SDS011;13733;51.178;4.450;2023-09-30T11:41:14;15.73;;;4.75;;
25936;SDS011;13733;51.178;4.450;2023-09-30T11:46:51;20.63;;;4.82;;
25936;SDS011;13733;51.178;4.450;2023-09-30T11:49:43;18.02;;;4.43;;
25936;SDS011;13733;51.178;4.450;2023-09-30T11:52:14;11.45;;;3.80;;
25936;SDS011;13733;51.178;4.450;2023-09-30T11:54:41;19.63;;;5.13;;
25936;SDS011;13733;51.178;4.450;2023-09-30T11:57:08;10.50;;;3.60;;
25936;SDS011;13733;51.178;4.450;2023-09-30T11:59:40;16.17;;;4.05;;
25936;SDS011;13733;51.178;4.450;2023-09-30T12:02:08;11.38;;;3.92;;
25936;SDS011;13733;51.178;4.450;2023-09-30T12:04:35;10.63;;;3.78;;
25936;SDS011;13733;51.178;4.450;2023-09-30T12:07:01;10.50;;;3.40;;
25936;SDS011;13733;51.178;4.450;2023-09-30T12:09:27;8.00;;;3.05;;
25936;SDS011;13733;51.178;4.450;2023-09-30T12:11:56;7.70;;;3.13;;
25936;SDS011;13733;51.178;4.450;2023-09-30T12:14:23;8.43;;;3.28;;
25936;SDS011;13733;51.178;4.450;2023-09-30T12:16:49;12.75;;;4.00;;
25936;SDS011;13733;51.178;4.450;2023-09-30T12:19:19;12.07;;;3.83;;
25936;SDS011;13733;51.178;4.450;2023-09-30T12:21:45;17.88;;;4.45;;
25936;SDS011;13733;51.178;4.450;2023-09-30T12:24:13;10.15;;;4.03;;
25936;SDS011;13733;51.178;4.450;2023-09-30T12:26:45;9.80;;;3.28;;
25936;SDS011;13733;51.178;4.450;2023-09-30T12:29:18;11.93;;;4.05;;
25936;SDS011;13733;51.178;4.450;2023-09-30T12:31:47;9.15;;;3.90;;
25936;SDS011;13733;51.178;4.450;2023-09-30T12:34:14;19.95;;;4.13;;
25936;SDS011;13733;51.178;4.450;2023-09-30T12:36:41;14.50;;;3.92;;
25936;SDS011;13733;51.178;4.450;2023-09-30T12:39:07;12.30;;;3.83;;
25936;SDS011;13733;51.178;4.450;2023-09-30T12:41:37;12.35;;;3.92;;
25936;SDS011;13733;51.178;4.450;2023-09-30T12:44:07;10.68;;;3.42;;
25936;SDS011;13733;51.178;4.450;2023-09-30T12:46:34;13.05;;;4.50;;
25936;SDS011;13733;51.178;4.450;2023-09-30T12:49:05;9.95;;;3.83;;
25936;SDS011;13733;51.178;4.450;2023-09-30T12:51:32;11.77;;;4.22;;
25936;SDS011;13733;51.178;4.450;2023-09-30T12:53:59;10.90;;;4.00;;
25936;SDS011;13733;51.178;4.450;2023-09-30T12:56:25;16.05;;;4.07;;
25936;SDS011;13733;51.178;4.450;2023-09-30T12:58:51;11.75;;;3.40;;
25936;SDS011;13733;51.178;4.450;2023-09-30T13:01:17;12.52;;;4.22;;
25936;SDS011;13733;51.178;4.450;2023-09-30T13:03:46;11.85;;;3.90;;
25936;SDS011;13733;51.178;4.450;2023-09-30T13:06:13;11.05;;;3.60;;
25936;SDS011;13733;51.178;4.450;2023-09-30T13:08:41;13.10;;;3.50;;
25936;SDS011;13733;51.178;4.450;2023-09-30T13:11:07;11.77;;;3.70;;
25936;SDS011;13733;51.178;4.450;2023-09-30T13:13:33;11.57;;;3.90;;
25936;SDS011;13733;51.178;4.450;2023-09-30T13:16:00;11.65;;;3.78;;
25936;SDS011;13733;51.178;4.450;2023-09-30T13:18:27;10.57;;;4.20;;
25936;SDS011;13733;51.178;4.450;2023-09-30T13:20:53;15.23;;;4.00;;
25936;SDS011;13733;51.178;4.450;2023-09-30T13:23:19;11.52;;;4.10;;
25936;SDS011;13733;51.178;4.450;2023-09-30T13:25:46;11.02;;;4.15;;
25936;SDS011;13733;51.178;4.450;2023-09-30T13:28:12;12.60;;;4.07;;
25936;SDS011;13733;51.178;4.450;2023-09-30T13:30:38;9.68;;;3.85;;
25936;SDS011;13733;51.178;4.450;2023-09-30T13:33:04;9.45;;;3.40;;
25936;SDS011;13733;51.178;4.450;2023-09-30T13:35:30;8.27;;;3.22;;
25936;SDS011;13733;51.178;4.450;2023-09-30T13:37:57;11.25;;;3.88;;
25936;SDS011;13733;51.178;4.450;2023-09-30T13:40:23;12.85;;;3.95;;
25936;SDS011;13733;51.178;4.450;2023-09-30T13:42:49;11.85;;;3.97;;
25936;SDS011;13733;51.178;4.450;2023-09-30T13:45:15;10.65;;;3.97;;
25936;SDS011;13733;51.178;4.450;2023-09-30T13:47:44;11.68;;;3.70;;
25936;SDS011;13733;51.178;4.450;2023-09-30T13:50:10;10.15;;;3.95;;
25936;SDS011;13733;51.178;4.450;2023-09-30T13:52:39;12.77;;;4.00;;
25936;SDS011;13733;51.178;4.450;2023-09-30T13:55:05;8.23;;;3.72;;
25936;SDS011;13733;51.178;4.450;2023-09-30T13:57:31;9.00;;;3.47;;
25936;SDS011;13733;51.178;4.450;2023-09-30T13:59:57;11.27;;;3.53;;
25936;SDS011;13733;51.178;4.450;2023-09-30T14:02:24;8.68;;;3.70;;
25936;SDS011;13733;51.178;4.450;2023-09-30T14:04:50;10.95;;;3.90;;
25936;SDS011;13733;51.178;4.450;2023-09-30T14:07:18;10.23;;;3.78;;
25936;SDS011;13733;51.178;4.450;2023-09-30T14:09:44;10.10;;;3.60;;
25936;SDS011;13733;51.178;4.450;2023-09-30T14:12:10;8.40;;;3.25;;
25936;SDS011;13733;51.178;4.450;2023-09-30T14:14:37;9.98;;;4.07;;
25936;SDS011;13733;51.178;4.450;2023-09-30T14:17:03;9.80;;;3.55;;
25936;SDS011;13733;51.178;4.450;2023-09-30T14:19:40;10.63;;;3.75;;
25936;SDS011;13733;51.178;4.450;2023-09-30T14:22:06;10.15;;;3.65;;
25936;SDS011;13733;51.178;4.450;2023-09-30T14:24:33;8.90;;;3.60;;
25936;SDS011;13733;51.178;4.450;2023-09-30T14:27:00;10.45;;;3.53;;
25936;SDS011;13733;51.178;4.450;2023-09-30T14:29:30;9.07;;;3.63;;
25936;SDS011;13733;51.178;4.450;2023-09-30T14:31:56;11.20;;;3.72;;
25936;SDS011;13733;51.178;4.450;2023-09-30T14:34:23;13.10;;;4.07;;
25936;SDS011;13733;51.178;4.450;2023-09-30T14:36:49;10.35;;;3.42;;
25936;SDS011;13733;51.178;4.450;2023-09-30T14:39:17;10.63;;;3.60;;
25936;SDS011;13733;51.178;4.450;2023-09-30T14:41:43;9.30;;;3.35;;
25936;SDS011;13733;51.178;4.450;2023-09-30T14:44:09;9.80;;;3.80;;
25936;SDS011;13733;51.178;4.450;2023-09-30T14:46:37;9.77;;;3.90;;
25936;SDS011;13733;51.178;4.450;2023-09-30T14:49:05;11.35;;;4.13;;
25936;SDS011;13733;51.178;4.450;2023-09-30T14:51:34;14.10;;;3.93;;
25936;SDS011;13733;51.178;4.450;2023-09-30T14:54:00;8.90;;;3.55;;
25936;SDS011;13733;51.178;4.450;2023-09-30T14:56:27;11.20;;;3.72;;
25936;SDS011;13733;51.178;4.450;2023-09-30T14:58:53;9.38;;;3.58;;